sensor_id;sensor_type;location;lat;lon;timestamp;pressure;altitude;pressure_sealevel;temperature;humidity
77207;BME280;66190;50.708;7.906;2024-02-26T00:02:05;94569.50;;;6.10;70.67
77207;BME280;66190;50.708;7.906;2024-02-26T00:04:32;94568.13;;;6.08;70.87
77207;BME280;66190;50.708;7.906;2024-02-26T00:06:57;94568.50;;;6.11;71.00
77207;BME280;66190;50.708;7.906;2024-02-26T00:09:23;94569.38;;;6.05;70.87
77207;BME280;66190;50.708;7.906;2024-02-26T00:11:49;94563.38;;;6.10;71.29
77207;BME280;66190;50.708;7.906;2024-02-26T00:14:14;94548.97;;;6.11;70.91
77207;BME280;66190;50.708;7.906;2024-02-26T00:16:40;94553.13;;;6.07;71.33
77207;BME280;66190;50.708;7.906;2024-02-26T00:19:06;94545.72;;;6.09;71.29
77207;BME280;66190;50.708;7.906;2024-02-26T00:21:32;94550.44;;;6.07;71.18
77207;BME280;66190;50.708;7.906;2024-02-26T00:23:57;94554.19;;;6.06;71.42
77207;BME280;66190;50.708;7.906;2024-02-26T00:26:23;94551.81;;;6.16;71.58
77207;BME280;66190;50.708;7.906;2024-02-26T00:28:48;94557.88;;;6.05;71.71
77207;BME280;66190;50.708;7.906;2024-02-26T00:31:14;94546.16;;;6.06;71.82
77207;BME280;66190;50.708;7.906;2024-02-26T00:33:39;94553.94;;;6.07;71.63
77207;BME280;66190;50.708;7.906;2024-02-26T00:36:05;94547.63;;;6.02;72.08
77207;BME280;66190;50.708;7.906;2024-02-26T00:38:30;94546.81;;;6.01;72.24
77207;BME280;66190;50.708;7.906;2024-02-26T00:40:56;94542.16;;;5.97;72.39
77207;BME280;66190;50.708;7.906;2024-02-26T00:43:21;94534.28;;;6.02;72.05
77207;BME280;66190;50.708;7.906;2024-02-26T00:45:47;94531.41;;;6.03;71.92
77207;BME280;66190;50.708;7.906;2024-02-26T00:48:12;94535.25;;;6.07;72.09
77207;BME280;66190;50.708;7.906;2024-02-26T00:50:39;94530.16;;;6.06;72.11
77207;BME280;66190;50.708;7.906;2024-02-26T00:53:05;94532.59;;;6.07;72.31
77207;BME280;66190;50.708;7.906;2024-02-26T00:55:30;94533.66;;;6.06;72.40
77207;BME280;66190;50.708;7.906;2024-02-26T00:57:56;94535.25;;;6.07;72.50
77207;BME280;66190;50.708;7.906;2024-02-26T01:00:21;94540.97;;;6.11;72.44
77207;BME280;66190;50.708;7.906;2024-02-26T01:02:47;94544.53;;;6.05;72.38
77207;BME280;66190;50.708;7.906;2024-02-26T01:05:13;94544.38;;;6.00;72.62
77207;BME280;66190;50.708;7.906;2024-02-26T01:07:38;94540.47;;;6.02;72.90
77207;BME280;66190;50.708;7.906;2024-02-26T01:10:05;94536.50;;;6.05;72.97
77207;BME280;66190;50.708;7.906;2024-02-26T01:12:32;94542.44;;;6.07;72.86
77207;BME280;66190;50.708;7.906;2024-02-26T01:14:57;94542.97;;;5.97;73.23
77207;BME280;66190;50.708;7.906;2024-02-26T01:17:22;94546.81;;;6.01;73.81
77207;BME280;66190;50.708;7.906;2024-02-26T01:19:48;94543.56;;;5.99;74.45
77207;BME280;66190;50.708;7.906;2024-02-26T01:22:13;94540.09;;;5.99;74.69
77207;BME280;66190;50.708;7.906;2024-02-26T01:24:39;94547.19;;;6.05;75.21
77207;BME280;66190;50.708;7.906;2024-02-26T01:27:04;94542.44;;;6.07;75.53
77207;BME280;66190;50.708;7.906;2024-02-26T01:29:29;94543.72;;;6.04;75.70
77207;BME280;66190;50.708;7.906;2024-02-26T01:31:55;94528.88;;;6.08;76.29
77207;BME280;66190;50.708;7.906;2024-02-26T01:34:21;94529.69;;;6.09;76.46
77207;BME280;66190;50.708;7.906;2024-02-26T01:36:46;94527.63;;;6.11;76.75
77207;BME280;66190;50.708;7.906;2024-02-26T01:39:12;94518.56;;;6.12;77.30
77207;BME280;66190;50.708;7.906;2024-02-26T01:41:40;94515.34;;;6.10;77.55
77207;BME280;66190;50.708;7.906;2024-02-26T01:44:06;94518.56;;;6.12;77.60
77207;BME280;66190;50.708;7.906;2024-02-26T01:46:33;94514.50;;;6.09;77.62
77207;BME280;66190;50.708;7.906;2024-02-26T01:49:00;94518.38;;;6.13;78.23
77207;BME280;66190;50.708;7.906;2024-02-26T01:51:26;94518.75;;;6.17;78.29
77207;BME280;66190;50.708;7.906;2024-02-26T01:53:52;94513.59;;;6.15;77.74
77207;BME280;66190;50.708;7.906;2024-02-26T01:56:19;94514.56;;;6.21;78.01
77207;BME280;66190;50.708;7.906;2024-02-26T01:58:46;94501.44;;;6.19;78.54
77207;BME280;66190;50.708;7.906;2024-02-26T02:01:15;94509.31;;;6.14;79.84
77207;BME280;66190;50.708;7.906;2024-02-26T02:03:43;94505.41;;;6.17;79.21
77207;BME280;66190;50.708;7.906;2024-02-26T02:06:09;94510.38;;;6.13;79.62
77207;BME280;66190;50.708;7.906;2024-02-26T02:08:34;94505.03;;;6.13;80.25
77207;BME280;66190;50.708;7.906;2024-02-26T02:11:00;94506.72;;;6.08;81.01
77207;BME280;66190;50.708;7.906;2024-02-26T02:13:26;94503.16;;;5.96;81.82
77207;BME280;66190;50.708;7.906;2024-02-26T02:15:52;94504.94;;;5.84;81.35
77207;BME280;66190;50.708;7.906;2024-02-26T02:18:17;94500.66;;;5.76;82.14
77207;BME280;66190;50.708;7.906;2024-02-26T02:20:44;94501.53;;;5.70;81.86
77207;BME280;66190;50.708;7.906;2024-02-26T02:23:09;94498.94;;;5.63;82.14
77207;BME280;66190;50.708;7.906;2024-02-26T02:25:34;94497.31;;;5.62;82.42
77207;BME280;66190;50.708;7.906;2024-02-26T02:28:00;94488.34;;;5.57;82.94
77207;BME280;66190;50.708;7.906;2024-02-26T02:30:29;94498.09;;;5.45;82.77
77207;BME280;66190;50.708;7.906;2024-02-26T02:32:55;94493.75;;;5.50;82.96
77207;BME280;66190;50.708;7.906;2024-02-26T02:35:22;94493.53;;;5.52;82.58
77207;BME280;66190;50.708;7.906;2024-02-26T02:37:47;94504.03;;;5.47;82.27
77207;BME280;66190;50.708;7.906;2024-02-26T02:40:13;94499.94;;;5.44;82.21
77207;BME280;66190;50.708;7.906;2024-02-26T02:42:38;94499.25;;;5.31;82.90
77207;BME280;66190;50.708;7.906;2024-02-26T02:45:04;94496.72;;;5.36;83.05
77207;BME280;66190;50.708;7.906;2024-02-26T02:47:29;94495.69;;;5.37;83.74
77207;BME280;66190;50.708;7.906;2024-02-26T02:49:55;94494.66;;;5.38;84.27
77207;BME280;66190;50.708;7.906;2024-02-26T02:52:20;94492.69;;;5.27;84.19
77207;BME280;66190;50.708;7.906;2024-02-26T02:54:46;94488.03;;;5.22;84.39
77207;BME280;66190;50.708;7.906;2024-02-26T02:57:12;94490.47;;;5.24;83.77
77207;BME280;66190;50.708;7.906;2024-02-26T02:59:37;94487.22;;;5.22;83.36
77207;BME280;66190;50.708;7.906;2024-02-26T03:02:03;94487.44;;;5.20;83.00
77207;BME280;66190;50.708;7.906;2024-02-26T03:04:28;94492.47;;;5.28;83.15
77207;BME280;66190;50.708;7.906;2024-02-26T03:06:54;94500.28;;;5.30;82.56
77207;BME280;66190;50.708;7.906;2024-02-26T03:09:20;94498.97;;;5.14;82.59
77207;BME280;66190;50.708;7.906;2024-02-26T03:11:45;94502.22;;;5.16;83.12
77207;BME280;66190;50.708;7.906;2024-02-26T03:14:10;94503.38;;;5.27;82.10
77207;BME280;66190;50.708;7.906;2024-02-26T03:16:36;94505.03;;;5.21;82.57
77207;BME280;66190;50.708;7.906;2024-02-26T03:19:01;94501.19;;;5.17;83.24
77207;BME280;66190;50.708;7.906;2024-02-26T03:21:28;94500.59;;;5.15;83.18
77207;BME280;66190;50.708;7.906;2024-02-26T03:23:53;94509.63;;;5.14;83.64
77207;BME280;66190;50.708;7.906;2024-02-26T03:26:19;94506.75;;;5.16;83.35
77207;BME280;66190;50.708;7.906;2024-02-26T03:28:44;94507.31;;;5.18;83.29
77207;BME280;66190;50.708;7.906;2024-02-26T03:31:10;94501.81;;;5.19;83.26
77207;BME280;66190;50.708;7.906;2024-02-26T03:33:36;94490.94;;;5.21;83.57
77207;BME280;66190;50.708;7.906;2024-02-26T03:36:01;94494.22;;;5.16;83.15
77207;BME280;66190;50.708;7.906;2024-02-26T03:38:28;94493.38;;;5.22;83.20
77207;BME280;66190;50.708;7.906;2024-02-26T03:40:54;94508.53;;;5.22;82.77
77207;BME280;66190;50.708;7.906;2024-02-26T03:43:19;94503.88;;;5.17;82.41
77207;BME280;66190;50.708;7.906;2024-02-26T03:45:45;94495.75;;;5.30;81.72
77207;BME280;66190;50.708;7.906;2024-02-26T03:48:10;94503.28;;;5.40;82.21
77207;BME280;66190;50.708;7.906;2024-02-26T03:50:35;94503.50;;;5.38;82.01
77207;BME280;66190;50.708;7.906;2024-02-26T03:53:01;94506.91;;;5.45;81.40
77207;BME280;66190;50.708;7.906;2024-02-26T03:55:26;94511.38;;;5.51;80.93
77207;BME280;66190;50.708;7.906;2024-02-26T03:57:52;94505.72;;;5.59;81.37
77207;BME280;66190;50.708;7.906;2024-02-26T04:00:18;94506.13;;;5.63;81.41
77207;BME280;66190;50.708;7.906;2024-02-26T04:02:43;94495.75;;;5.55;82.50
77207;BME280;66190;50.708;7.906;2024-02-26T04:05:13;94498.84;;;5.52;81.91
77207;BME280;66190;50.708;7.906;2024-02-26T04:07:39;94504.41;;;5.50;82.29
77207;BME280;66190;50.708;7.906;2024-02-26T04:10:11;94500.69;;;5.51;82.05
77207;BME280;66190;50.708;7.906;2024-02-26T04:12:39;94505.38;;;5.56;81.58
77207;BME280;66190;50.708;7.906;2024-02-26T04:15:09;94506.78;;;5.58;81.29
77207;BME280;66190;50.708;7.906;2024-02-26T04:17:36;94511.41;;;5.69;81.24
77207;BME280;66190;50.708;7.906;2024-02-26T04:20:02;94511.41;;;5.69;81.29
77207;BME280;66190;50.708;7.906;2024-02-26T04:22:27;94513.25;;;5.69;81.26
77207;BME280;66190;50.708;7.906;2024-02-26T04:24:53;94502.06;;;5.60;82.13
77207;BME280;66190;50.708;7.906;2024-02-26T04:27:18;94503.88;;;5.60;82.53
77207;BME280;66190;50.708;7.906;2024-02-26T04:29:44;94507.38;;;5.60;82.94
77207;BME280;66190;50.708;7.906;2024-02-26T04:32:09;94506.34;;;5.61;83.31
77207;BME280;66190;50.708;7.906;2024-02-26T04:34:35;94506.72;;;5.65;83.72
77207;BME280;66190;50.708;7.906;2024-02-26T04:37:00;94506.31;;;5.68;83.74
77207;BME280;66190;50.708;7.906;2024-02-26T04:39:25;94508.38;;;5.66;84.25
77207;BME280;66190;50.708;7.906;2024-02-26T04:41:51;94509.75;;;5.68;84.35
77207;BME280;66190;50.708;7.906;2024-02-26T04:44:16;94511.63;;;5.68;84.17
77207;BME280;66190;50.708;7.906;2024-02-26T04:46:42;94509.22;;;5.60;84.71
77207;BME280;66190;50.708;7.906;2024-02-26T04:49:07;94516.00;;;5.62;84.41
77207;BME280;66190;50.708;7.906;2024-02-26T04:51:33;94519.41;;;5.69;84.71
77207;BME280;66190;50.708;7.906;2024-02-26T04:53:58;94523.06;;;5.75;85.02
77207;BME280;66190;50.708;7.906;2024-02-26T04:56:24;94531.09;;;5.68;85.17
77207;BME280;66190;50.708;7.906;2024-02-26T04:58:50;94532.16;;;5.67;85.06
77207;BME280;66190;50.708;7.906;2024-02-26T05:01:15;94534.38;;;5.70;85.28
77207;BME280;66190;50.708;7.906;2024-02-26T05:03:42;94535.19;;;5.71;85.46
77207;BME280;66190;50.708;7.906;2024-02-26T05:06:08;94532.16;;;5.67;85.54
77207;BME280;66190;50.708;7.906;2024-02-26T05:08:34;94534.81;;;5.67;86.05
77207;BME280;66190;50.708;7.906;2024-02-26T05:11:01;94528.72;;;5.60;85.93
77207;BME280;66190;50.708;7.906;2024-02-26T05:13:28;94531.16;;;5.62;86.24
77207;BME280;66190;50.708;7.906;2024-02-26T05:15:53;94526.53;;;5.51;85.92
77207;BME280;66190;50.708;7.906;2024-02-26T05:18:19;94527.44;;;5.45;85.22
77207;BME280;66190;50.708;7.906;2024-02-26T05:20:44;94530.63;;;5.53;84.97
77207;BME280;66190;50.708;7.906;2024-02-26T05:23:09;94528.63;;;5.49;85.52
77207;BME280;66190;50.708;7.906;2024-02-26T05:25:35;94521.81;;;5.53;85.75
77207;BME280;66190;50.708;7.906;2024-02-26T05:28:00;94528.34;;;5.57;85.69
77207;BME280;66190;50.708;7.906;2024-02-26T05:30:26;94526.72;;;5.56;85.84
77207;BME280;66190;50.708;7.906;2024-02-26T05:32:54;94531.88;;;5.51;86.15
77207;BME280;66190;50.708;7.906;2024-02-26T05:35:19;94530.63;;;5.53;86.22
77207;BME280;66190;50.708;7.906;2024-02-26T05:37:45;94537.28;;;5.44;86.71
77207;BME280;66190;50.708;7.906;2024-02-26T05:40:11;94538.72;;;5.40;87.06
77207;BME280;66190;50.708;7.906;2024-02-26T05:42:36;94539.56;;;5.41;87.32
77207;BME280;66190;50.708;7.906;2024-02-26T05:45:02;94542.72;;;5.31;87.90
77207;BME280;66190;50.708;7.906;2024-02-26T05:47:32;94541.91;;;5.31;88.67
77207;BME280;66190;50.708;7.906;2024-02-26T05:49:57;94543.97;;;5.29;88.45
77207;BME280;66190;50.708;7.906;2024-02-26T05:52:24;94543.34;;;5.27;88.53
77207;BME280;66190;50.708;7.906;2024-02-26T05:54:50;94539.84;;;5.33;88.71
77207;BME280;66190;50.708;7.906;2024-02-26T05:57:15;94546.19;;;5.32;88.77
77207;BME280;66190;50.708;7.906;2024-02-26T05:59:40;94546.03;;;5.27;88.51
77207;BME280;66190;50.708;7.906;2024-02-26T06:02:06;94549.72;;;5.26;88.59
77207;BME280;66190;50.708;7.906;2024-02-26T06:04:31;94550.13;;;5.29;89.07
77207;BME280;66190;50.708;7.906;2024-02-26T06:06:56;94554.47;;;5.24;88.68
77207;BME280;66190;50.708;7.906;2024-02-26T06:09:22;94559.56;;;5.25;88.70
77207;BME280;66190;50.708;7.906;2024-02-26T06:11:48;94563.50;;;5.23;89.34
77207;BME280;66190;50.708;7.906;2024-02-26T06:14:13;94569.69;;;5.17;89.27
77207;BME280;66190;50.708;7.906;2024-02-26T06:16:43;94568.91;;;5.10;89.30
77207;BME280;66190;50.708;7.906;2024-02-26T06:19:08;94566.72;;;5.00;89.29
77207;BME280;66190;50.708;7.906;2024-02-26T06:21:34;94576.94;;;5.03;89.66
77207;BME280;66190;50.708;7.906;2024-02-26T06:24:00;94575.28;;;5.02;90.12
77207;BME280;66190;50.708;7.906;2024-02-26T06:26:26;94582.72;;;4.94;90.02
77207;BME280;66190;50.708;7.906;2024-02-26T06:28:54;94586.81;;;4.96;90.24
77207;BME280;66190;50.708;7.906;2024-02-26T06:31:20;94577.63;;;4.92;90.18
77207;BME280;66190;50.708;7.906;2024-02-26T06:33:47;94588.06;;;4.94;89.81
77207;BME280;66190;50.708;7.906;2024-02-26T06:36:12;94581.94;;;4.93;89.90
77207;BME280;66190;50.708;7.906;2024-02-26T06:38:38;94590.34;;;4.90;90.74
77207;BME280;66190;50.708;7.906;2024-02-26T06:41:05;94597.31;;;4.91;90.70
77207;BME280;66190;50.708;7.906;2024-02-26T06:43:30;94594.66;;;4.91;90.09
77207;BME280;66190;50.708;7.906;2024-02-26T06:45:55;94595.91;;;4.82;90.25
77207;BME280;66190;50.708;7.906;2024-02-26T06:48:23;94592.03;;;4.78;90.38
77207;BME280;66190;50.708;7.906;2024-02-26T06:50:48;94601.91;;;4.78;90.81
77207;BME280;66190;50.708;7.906;2024-02-26T06:53:14;94610.72;;;4.72;90.76
77207;BME280;66190;50.708;7.906;2024-02-26T06:55:39;94603.31;;;4.80;91.18
77207;BME280;66190;50.708;7.906;2024-02-26T06:58:06;94614.22;;;4.72;91.35
77207;BME280;66190;50.708;7.906;2024-02-26T07:00:31;94619.75;;;4.71;91.55
77207;BME280;66190;50.708;7.906;2024-02-26T07:02:56;94624.00;;;4.78;91.68
77207;BME280;66190;50.708;7.906;2024-02-26T07:05:22;94627.50;;;4.79;90.98
77207;BME280;66190;50.708;7.906;2024-02-26T07:07:47;94633.88;;;4.71;91.16
77207;BME280;66190;50.708;7.906;2024-02-26T07:10:13;94629.16;;;4.73;91.05
77207;BME280;66190;50.708;7.906;2024-02-26T07:12:38;94632.22;;;4.77;90.90
77207;BME280;66190;50.708;7.906;2024-02-26T07:15:04;94632.16;;;4.83;90.92
77207;BME280;66190;50.708;7.906;2024-02-26T07:17:32;94633.66;;;4.79;90.73
77207;BME280;66190;50.708;7.906;2024-02-26T07:19:59;94634.84;;;4.83;91.23
77207;BME280;66190;50.708;7.906;2024-02-26T07:22:24;94637.50;;;4.83;91.54
77207;BME280;66190;50.708;7.906;2024-02-26T07:24:50;94644.69;;;4.76;91.20
77207;BME280;66190;50.708;7.906;2024-02-26T07:27:17;94637.53;;;4.77;91.14
77207;BME280;66190;50.708;7.906;2024-02-26T07:29:43;94643.69;;;4.77;90.65
77207;BME280;66190;50.708;7.906;2024-02-26T07:32:08;94647.97;;;4.85;90.51
77207;BME280;66190;50.708;7.906;2024-02-26T07:34:34;94647.97;;;4.85;91.26
77207;BME280;66190;50.708;7.906;2024-02-26T07:37:00;94646.72;;;4.87;90.92
77207;BME280;66190;50.708;7.906;2024-02-26T07:39:26;94653.69;;;4.88;91.58
77207;BME280;66190;50.708;7.906;2024-02-26T07:41:52;94650.16;;;4.94;91.96
77207;BME280;66190;50.708;7.906;2024-02-26T07:44:18;94660.25;;;5.23;93.62
77207;BME280;66190;50.708;7.906;2024-02-26T07:46:44;94650.50;;;5.11;91.18
77207;BME280;66190;50.708;7.906;2024-02-26T07:49:09;94655.63;;;5.06;90.95
77207;BME280;66190;50.708;7.906;2024-02-26T07:51:35;94657.91;;;5.09;91.05
77207;BME280;66190;50.708;7.906;2024-02-26T07:54:00;94661.75;;;5.13;90.51
77207;BME280;66190;50.708;7.906;2024-02-26T07:56:26;94666.34;;;4.99;90.57
77207;BME280;66190;50.708;7.906;2024-02-26T07:58:52;94661.84;;;5.00;90.41
77207;BME280;66190;50.708;7.906;2024-02-26T08:01:17;94659.81;;;4.89;90.43
77207;BME280;66190;50.708;7.906;2024-02-26T08:03:42;94668.81;;;4.94;89.97
77207;BME280;66190;50.708;7.906;2024-02-26T08:06:08;94664.94;;;4.90;90.14
77207;BME280;66190;50.708;7.906;2024-02-26T08:08:33;94676.63;;;4.89;90.14
77207;BME280;66190;50.708;7.906;2024-02-26T08:10:59;94677.38;;;5.03;90.66
77207;BME280;66190;50.708;7.906;2024-02-26T08:13:25;94675.19;;;4.93;90.68
77207;BME280;66190;50.708;7.906;2024-02-26T08:15:52;94669.03;;;4.93;90.32
77207;BME280;66190;50.708;7.906;2024-02-26T08:18:18;94676.84;;;4.88;90.92
77207;BME280;66190;50.708;7.906;2024-02-26T08:20:44;94668.63;;;4.89;90.45
77207;BME280;66190;50.708;7.906;2024-02-26T08:23:09;94669.25;;;4.91;90.97
77207;BME280;66190;50.708;7.906;2024-02-26T08:25:35;94670.47;;;4.89;91.11
77207;BME280;66190;50.708;7.906;2024-02-26T08:28:00;94677.06;;;4.86;91.19
77207;BME280;66190;50.708;7.906;2024-02-26T08:30:26;94677.41;;;4.96;91.31
77207;BME280;66190;50.708;7.906;2024-02-26T08:32:51;94683.38;;;4.98;90.96
77207;BME280;66190;50.708;7.906;2024-02-26T08:35:17;94689.09;;;4.95;90.94
77207;BME280;66190;50.708;7.906;2024-02-26T08:37:47;94696.69;;;4.98;91.17
77207;BME280;66190;50.708;7.906;2024-02-26T08:40:13;94699.97;;;4.94;91.48
77207;BME280;66190;50.708;7.906;2024-02-26T08:42:38;94699.97;;;5.00;90.71
77207;BME280;66190;50.708;7.906;2024-02-26T08:45:04;94703.84;;;4.98;91.23
77207;BME280;66190;50.708;7.906;2024-02-26T08:47:30;94699.16;;;4.93;91.15
77207;BME280;66190;50.708;7.906;2024-02-26T08:49:55;94706.94;;;4.95;91.33
77207;BME280;66190;50.708;7.906;2024-02-26T08:52:21;94706.19;;;4.81;91.28
77207;BME280;66190;50.708;7.906;2024-02-26T08:54:49;94709.81;;;4.93;91.62
77207;BME280;66190;50.708;7.906;2024-02-26T08:57:15;94703.06;;;4.91;91.63
77207;BME280;66190;50.708;7.906;2024-02-26T08:59:41;94705.13;;;4.89;91.52
77207;BME280;66190;50.708;7.906;2024-02-26T09:02:07;94705.94;;;4.89;91.37
77207;BME280;66190;50.708;7.906;2024-02-26T09:04:34;94702.22;;;4.97;91.54
77207;BME280;66190;50.708;7.906;2024-02-26T09:07:01;94705.91;;;4.96;91.68
77207;BME280;66190;50.708;7.906;2024-02-26T09:09:26;94710.00;;;4.98;92.23
77207;BME280;66190;50.708;7.906;2024-02-26T09:11:52;94712.25;;;5.01;92.22
77207;BME280;66190;50.708;7.906;2024-02-26T09:14:18;94712.03;;;5.03;92.23
77207;BME280;66190;50.708;7.906;2024-02-26T09:16:44;94715.13;;;5.00;91.89
77207;BME280;66190;50.708;7.906;2024-02-26T09:19:09;94723.34;;;4.98;91.47
77207;BME280;66190;50.708;7.906;2024-02-26T09:21:34;94724.53;;;5.02;91.63
77207;BME280;66190;50.708;7.906;2024-02-26T09:24:00;94721.66;;;5.10;91.79
77207;BME280;66190;50.708;7.906;2024-02-26T09:26:25;94710.97;;;5.10;91.72
77207;BME280;66190;50.708;7.906;2024-02-26T09:28:51;94722.25;;;5.12;91.98
77207;BME280;66190;50.708;7.906;2024-02-26T09:31:17;94725.31;;;5.16;91.74
77207;BME280;66190;50.708;7.906;2024-02-26T09:33:43;94721.19;;;5.26;91.39
77207;BME280;66190;50.708;7.906;2024-02-26T09:36:09;94727.06;;;5.35;91.45
77207;BME280;66190;50.708;7.906;2024-02-26T09:38:36;94735.69;;;5.30;91.86
77207;BME280;66190;50.708;7.906;2024-02-26T09:41:04;94734.28;;;5.21;91.45
77207;BME280;66190;50.708;7.906;2024-02-26T09:43:34;94727.50;;;5.25;91.30
77207;BME280;66190;50.708;7.906;2024-02-26T09:46:01;94730.63;;;5.22;91.70
77207;BME280;66190;50.708;7.906;2024-02-26T09:48:26;94740.38;;;5.41;92.13
77207;BME280;66190;50.708;7.906;2024-02-26T09:50:53;94743.88;;;5.42;91.66
77207;BME280;66190;50.708;7.906;2024-02-26T09:53:21;94751.38;;;5.51;91.47
77207;BME280;66190;50.708;7.906;2024-02-26T09:55:47;94753.78;;;5.66;91.79
77207;BME280;66190;50.708;7.906;2024-02-26T09:58:13;94756.50;;;5.53;91.00
77207;BME280;66190;50.708;7.906;2024-02-26T10:00:47;94758.78;;;5.56;91.10
77207;BME280;66190;50.708;7.906;2024-02-26T10:03:17;94757.69;;;5.63;91.01
77207;BME280;66190;50.708;7.906;2024-02-26T10:05:46;94770.00;;;5.64;91.10
77207;BME280;66190;50.708;7.906;2024-02-26T10:08:12;94764.03;;;5.69;90.86
77207;BME280;66190;50.708;7.906;2024-02-26T10:10:39;94765.84;;;5.75;91.33
77207;BME280;66190;50.708;7.906;2024-02-26T10:13:05;94772.03;;;5.69;91.16
77207;BME280;66190;50.708;7.906;2024-02-26T10:15:36;94763.97;;;5.75;91.18
77207;BME280;66190;50.708;7.906;2024-02-26T10:18:04;94769.28;;;5.89;91.08
77207;BME280;66190;50.708;7.906;2024-02-26T10:20:30;94766.03;;;5.73;90.46
77207;BME280;66190;50.708;7.906;2024-02-26T10:22:57;94771.13;;;5.82;90.86
77207;BME280;66190;50.708;7.906;2024-02-26T10:25:22;94776.13;;;5.71;90.58
77207;BME280;66190;50.708;7.906;2024-02-26T10:27:48;94773.63;;;5.76;90.50
77207;BME280;66190;50.708;7.906;2024-02-26T10:30:19;94775.03;;;5.79;90.63
77207;BME280;66190;50.708;7.906;2024-02-26T10:32:45;94789.03;;;5.74;90.83
77207;BME280;66190;50.708;7.906;2024-02-26T10:35:12;94793.31;;;5.75;90.34
77207;BME280;66190;50.708;7.906;2024-02-26T10:37:40;94794.13;;;5.83;90.44
77207;BME280;66190;50.708;7.906;2024-02-26T10:40:06;94788.13;;;5.94;91.07
77207;BME280;66190;50.708;7.906;2024-02-26T10:42:31;94799.66;;;5.88;90.58
77207;BME280;66190;50.708;7.906;2024-02-26T10:44:58;94798.03;;;5.87;90.69
77207;BME280;66190;50.708;7.906;2024-02-26T10:47:24;94807.88;;;5.86;90.72
77207;BME280;66190;50.708;7.906;2024-02-26T10:49:50;94792.91;;;5.85;90.95
77207;BME280;66190;50.708;7.906;2024-02-26T10:52:19;94790.59;;;5.95;90.71
77207;BME280;66190;50.708;7.906;2024-02-26T10:54:47;94788.56;;;5.91;90.61
77207;BME280;66190;50.708;7.906;2024-02-26T10:57:13;94790.69;;;6.07;90.55
77207;BME280;66190;50.708;7.906;2024-02-26T10:59:39;94796.44;;;6.10;91.86
77207;BME280;66190;50.708;7.906;2024-02-26T11:02:08;94792.53;;;6.13;91.06
77207;BME280;66190;50.708;7.906;2024-02-26T11:04:35;94798.09;;;6.11;90.68
77207;BME280;66190;50.708;7.906;2024-02-26T11:07:02;94805.00;;;6.19;91.44
77207;BME280;66190;50.708;7.906;2024-02-26T11:09:30;94804.41;;;6.17;91.11
77207;BME280;66190;50.708;7.906;2024-02-26T11:11:57;94800.59;;;6.31;91.17
77207;BME280;66190;50.708;7.906;2024-02-26T11:14:23;94796.06;;;6.31;91.39
77207;BME280;66190;50.708;7.906;2024-02-26T11:16:51;94808.75;;;6.42;91.67
77207;BME280;66190;50.708;7.906;2024-02-26T11:19:18;94810.38;;;6.43;91.62
77207;BME280;66190;50.708;7.906;2024-02-26T11:21:43;94807.97;;;6.35;91.46
77207;BME280;66190;50.708;7.906;2024-02-26T11:24:12;94815.53;;;6.38;92.46
77207;BME280;66190;50.708;7.906;2024-02-26T11:26:43;94813.16;;;6.55;92.37
77207;BME280;66190;50.708;7.906;2024-02-26T11:29:18;94812.44;;;6.66;91.98
77207;BME280;66190;50.708;7.906;2024-02-26T11:31:45;94819.69;;;6.59;91.03
77207;BME280;66190;50.708;7.906;2024-02-26T11:34:10;94820.47;;;6.66;90.83
77207;BME280;66190;50.708;7.906;2024-02-26T11:36:36;94826.53;;;6.55;91.09
77207;BME280;66190;50.708;7.906;2024-02-26T11:39:04;94825.16;;;6.46;91.93
77207;BME280;66190;50.708;7.906;2024-02-26T11:41:30;94823.84;;;6.55;91.65
77207;BME280;66190;50.708;7.906;2024-02-26T11:44:01;94828.75;;;6.58;91.91
77207;BME280;66190;50.708;7.906;2024-02-26T11:46:28;94836.50;;;6.66;91.53
77207;BME280;66190;50.708;7.906;2024-02-26T11:48:59;94841.28;;;6.57;91.71
77207;BME280;66190;50.708;7.906;2024-02-26T11:51:27;94839.00;;;6.61;91.78
77207;BME280;66190;50.708;7.906;2024-02-26T11:53:53;94837.16;;;6.61;92.26
77207;BME280;66190;50.708;7.906;2024-02-26T11:56:21;94828.22;;;6.74;92.86
77207;BME280;66190;50.708;7.906;2024-02-26T11:59:05;94822.28;;;6.72;92.86
77207;BME280;66190;50.708;7.906;2024-02-26T12:04:02;94826.03;;;6.89;92.92
77207;BME280;66190;50.708;7.906;2024-02-26T12:06:29;94821.88;;;6.93;94.06
77207;BME280;66190;50.708;7.906;2024-02-26T12:08:55;94824.41;;;7.06;93.89
77207;BME280;66190;50.708;7.906;2024-02-26T12:11:21;94822.00;;;7.23;95.07
77207;BME280;66190;50.708;7.906;2024-02-26T12:13:47;94833.22;;;7.31;93.30
77207;BME280;66190;50.708;7.906;2024-02-26T12:16:37;94839.97;;;7.34;92.41
77207;BME280;66190;50.708;7.906;2024-02-26T12:19:07;94835.00;;;7.37;93.78
77207;BME280;66190;50.708;7.906;2024-02-26T12:21:36;94835.44;;;7.34;93.17
77207;BME280;66190;50.708;7.906;2024-02-26T12:24:13;94851.25;;;7.36;92.28
77207;BME280;66190;50.708;7.906;2024-02-26T12:26:40;94849.34;;;7.43;92.73
77207;BME280;66190;50.708;7.906;2024-02-26T12:29:06;94859.75;;;7.33;91.72
77207;BME280;66190;50.708;7.906;2024-02-26T12:31:34;94858.00;;;7.20;91.15
77207;BME280;66190;50.708;7.906;2024-02-26T12:34:05;94856.94;;;7.03;91.24
77207;BME280;66190;50.708;7.906;2024-02-26T12:36:30;94865.34;;;7.07;91.57
77207;BME280;66190;50.708;7.906;2024-02-26T12:38:56;94867.34;;;7.11;91.60
77207;BME280;66190;50.708;7.906;2024-02-26T12:41:22;94867.94;;;7.13;91.22
77207;BME280;66190;50.708;7.906;2024-02-26T12:43:48;94868.56;;;7.15;91.47
77207;BME280;66190;50.708;7.906;2024-02-26T12:46:14;94875.97;;;7.13;91.49
77207;BME280;66190;50.708;7.906;2024-02-26T12:48:44;94882.69;;;7.22;91.78
77207;BME280;66190;50.708;7.906;2024-02-26T12:51:14;94885.91;;;7.06;92.22
77207;BME280;66190;50.708;7.906;2024-02-26T12:53:40;94884.22;;;7.12;92.42
77207;BME280;66190;50.708;7.906;2024-02-26T12:56:08;94891.34;;;7.18;92.36
77207;BME280;66190;50.708;7.906;2024-02-26T12:58:35;94877.72;;;7.26;92.25
77207;BME280;66190;50.708;7.906;2024-02-26T13:01:03;94885.88;;;7.31;92.33
77207;BME280;66190;50.708;7.906;2024-02-26T13:03:29;94889.78;;;7.35;93.04
77207;BME280;66190;50.708;7.906;2024-02-26T13:05:55;94893.75;;;7.26;92.44
77207;BME280;66190;50.708;7.906;2024-02-26T13:08:21;94899.28;;;7.31;92.66